Phoenix, Arizona
Traffic Map
Current Weather Conditions
Phoenix, Arizona
Clear
Clear
87°
Feels Like: 87°
Wind Chill: 87° Ceiling: Unl
Heat Index: 87° Visibility: 10mi
Dew Point: 24° Wind: 7mph
Humidity: 10% Direction: 240° (WSW)
Pressure: 30.05in Gusts: 0mph
Raw Report DataKPHX 230051Z 24006KT 10SM CLR 31/M04 A3005 RMK AO2 SLP162 T03061044
Traffic Incident Summary
Active as of:
Severity:
Category:
InformationThere was an issue retrieving the traffic information for this location. Please try a different location or try again shortly.
Advertisements